createdAt,value
2023-04-09T00:01:07.348Z,102061.84
2023-04-09T00:01:29.853Z,102060.13
2023-04-09T00:03:56.361Z,102054.06
2023-04-09T00:06:07.248Z,102054.06
2023-04-09T00:06:22.808Z,102039.47
2023-04-09T00:08:49.369Z,102013.47
2023-04-09T00:11:07.212Z,102013.47
2023-04-09T00:11:15.942Z,101999.00
2023-04-09T00:13:42.341Z,102050.66
2023-04-09T00:16:07.270Z,102050.66
2023-04-09T00:16:08.912Z,102051.56
2023-04-09T00:18:35.647Z,101961.81
2023-04-09T00:21:02.185Z,102041.22
2023-04-09T00:21:07.253Z,102041.22
2023-04-09T00:23:28.633Z,102020.53
2023-04-09T00:25:55.157Z,102054.34
2023-04-09T00:26:07.250Z,102054.34
2023-04-09T00:28:21.645Z,101999.16
2023-04-09T00:30:48.039Z,101997.59
2023-04-09T00:31:07.238Z,101997.59
2023-04-09T00:33:14.459Z,102015.69
2023-04-09T00:35:41.136Z,102032.13
2023-04-09T00:36:07.266Z,102032.13
2023-04-09T00:38:07.558Z,101978.66
2023-04-09T00:40:33.994Z,102042.56
2023-04-09T00:41:07.227Z,102042.56
2023-04-09T00:43:01.101Z,102043.44
2023-04-09T00:45:27.619Z,102042.66
2023-04-09T00:46:07.327Z,102042.66
2023-04-09T00:47:54.402Z,102031.47
2023-04-09T00:50:21.504Z,102043.69
2023-04-09T00:51:07.256Z,102043.69
2023-04-09T00:52:47.998Z,102010.03
2023-04-09T00:55:14.964Z,102039.41
2023-04-09T00:56:07.335Z,102039.41
2023-04-09T00:57:41.354Z,102033.34
2023-04-09T01:00:08.481Z,102023.00
2023-04-09T01:01:07.244Z,102023.00
2023-04-09T01:02:35.189Z,102032.56
2023-04-09T01:05:02.024Z,101960.13
2023-04-09T01:06:07.261Z,101960.13
2023-04-09T01:07:36.916Z,102020.59
2023-04-09T01:10:15.432Z,101974.88
2023-04-09T01:11:07.240Z,101974.88
2023-04-09T01:13:00.461Z,102029.25
2023-04-09T01:15:31.249Z,101933.50
2023-04-09T01:16:07.284Z,101933.50
2023-04-09T01:18:23.528Z,102023.25
2023-04-09T01:21:02.789Z,101809.38
2023-04-09T01:21:07.242Z,101809.38
2023-04-09T01:23:32.435Z,101970.75
2023-04-09T01:26:17.032Z,101905.16
2023-04-09T01:26:17.188Z,101905.16
2023-04-09T01:28:46.471Z,101984.66
2023-04-09T01:31:07.402Z,101984.66
2023-04-09T01:31:15.014Z,102008.91
2023-04-09T01:33:42.282Z,102026.16
2023-04-09T01:36:07.325Z,102026.16
2023-04-09T01:36:09.573Z,101951.94
2023-04-09T01:38:39.027Z,102001.19
2023-04-09T01:41:07.590Z,101972.72
2023-04-09T01:41:08.263Z,101972.72
2023-04-09T01:43:34.818Z,102030.56
2023-04-09T01:46:03.395Z,102019.25
2023-04-09T01:46:07.287Z,102019.25
2023-04-09T01:48:31.469Z,102028.81
2023-04-09T01:50:59.083Z,102027.06
2023-04-09T01:51:07.262Z,102027.06
2023-04-09T01:53:28.281Z,102015.81
2023-04-09T01:55:58.142Z,102020.97
2023-04-09T01:56:07.266Z,102020.97
2023-04-09T01:58:25.609Z,101961.44
2023-04-09T02:01:03.496Z,102036.53
2023-04-09T02:01:07.290Z,102036.53
2023-04-09T02:03:37.886Z,102010.56
2023-04-09T02:06:17.180Z,102008.00
2023-04-09T02:06:17.352Z,102008.00
2023-04-09T02:08:47.082Z,102031.22
2023-04-09T02:11:07.223Z,102031.22
2023-04-09T02:11:15.843Z,102030.38
2023-04-09T02:13:43.345Z,102018.22
2023-04-09T02:16:07.257Z,102018.22
2023-04-09T02:16:12.970Z,101963.00
2023-04-09T02:18:39.409Z,102025.16
2023-04-09T02:21:06.481Z,102026.88
2023-04-09T02:21:07.245Z,102026.88
2023-04-09T02:23:33.503Z,101944.00
2023-04-09T02:25:59.840Z,102019.06
2023-04-09T02:26:07.243Z,102019.06
2023-04-09T02:28:26.202Z,102010.50
2023-04-09T02:30:52.749Z,102019.13
2023-04-09T02:31:07.331Z,102019.13
2023-04-09T02:33:19.182Z,102014.00
2023-04-09T02:35:45.787Z,102010.56
2023-04-09T02:36:07.331Z,102010.56
2023-04-09T02:38:16.021Z,102035.75
2023-04-09T02:40:42.754Z,102005.47
2023-04-09T02:41:07.256Z,102005.47
2023-04-09T02:43:09.808Z,101917.50
2023-04-09T02:45:36.372Z,101973.63
2023-04-09T02:46:07.352Z,101973.63
2023-04-09T02:48:02.750Z,102005.63
2023-04-09T02:50:29.505Z,102006.53
2023-04-09T02:51:07.243Z,102006.53
2023-04-09T02:52:55.973Z,101903.78
2023-04-09T02:55:22.482Z,101999.63
2023-04-09T02:56:07.295Z,101999.63
2023-04-09T02:57:48.892Z,101971.16
2023-04-09T03:00:15.337Z,101945.31
2023-04-09T03:01:07.279Z,101945.31
2023-04-09T03:02:42.019Z,101998.84
2023-04-09T03:05:08.895Z,101922.00
2023-04-09T03:06:07.283Z,101922.00
2023-04-09T03:07:35.303Z,101947.09
2023-04-09T03:10:01.737Z,101913.41
2023-04-09T03:11:07.280Z,101913.41
2023-04-09T03:12:28.190Z,101971.28
2023-04-09T03:14:54.618Z,101985.13
2023-04-09T03:16:07.393Z,101985.13
2023-04-09T03:17:21.144Z,101977.38
2023-04-09T03:19:47.475Z,101928.16
2023-04-09T03:21:07.287Z,101928.16
2023-04-09T03:22:13.934Z,101989.50
2023-04-09T03:24:40.482Z,101984.31
2023-04-09T03:26:07.293Z,101984.31
2023-04-09T03:27:06.811Z,101979.16
2023-04-09T03:29:33.164Z,101981.75
2023-04-09T03:31:07.336Z,101981.75
2023-04-09T03:31:59.524Z,101982.63
2023-04-09T03:34:25.901Z,101980.91
2023-04-09T03:36:07.344Z,101980.91
2023-04-09T03:36:52.251Z,101980.03
2023-04-09T03:39:18.602Z,101977.47
2023-04-09T03:41:07.288Z,101977.47
2023-04-09T03:41:45.013Z,101974.00
2023-04-09T03:44:11.370Z,101971.41
2023-04-09T03:46:07.383Z,101971.41
2023-04-09T03:46:37.771Z,101670.13
2023-04-09T03:49:04.298Z,101967.97
2023-04-09T03:51:07.297Z,101967.97
2023-04-09T03:51:31.781Z,101971.44
2023-04-09T03:53:58.113Z,101990.44
2023-04-09T03:56:07.311Z,101990.44
2023-04-09T03:56:24.439Z,101877.25
2023-04-09T03:58:51.023Z,101976.59
2023-04-09T04:01:07.330Z,101976.59
2023-04-09T04:01:17.667Z,101970.56
2023-04-09T04:03:44.231Z,101968.00
2023-04-09T04:06:07.284Z,101968.00
2023-04-09T04:06:10.732Z,101976.63
2023-04-09T04:08:37.089Z,101887.66
2023-04-09T04:11:05.019Z,101971.44
2023-04-09T04:11:07.307Z,101971.44
2023-04-09T04:13:31.781Z,101980.09
2023-04-09T04:15:58.210Z,101879.84
2023-04-09T04:16:07.398Z,101879.84
2023-04-09T04:18:24.617Z,101981.81
2023-04-09T04:20:51.183Z,101952.44
2023-04-09T04:21:07.264Z,101952.44
2023-04-09T04:23:17.610Z,101974.91
2023-04-09T04:25:43.959Z,101975.78
2023-04-09T04:26:07.293Z,101975.78
2023-04-09T04:28:10.356Z,101948.13
2023-04-09T04:30:36.783Z,101990.44
2023-04-09T04:31:07.341Z,101990.44
2023-04-09T04:33:03.302Z,101894.50
2023-04-09T04:35:29.691Z,101974.91
2023-04-09T04:36:07.310Z,101974.91
2023-04-09T04:37:56.162Z,101983.53
2023-04-09T04:40:22.538Z,101986.97
2023-04-09T04:41:07.304Z,101986.97
2023-04-09T04:42:49.005Z,101957.59
2023-04-09T04:45:15.482Z,101987.84
2023-04-09T04:46:07.329Z,101987.84
2023-04-09T04:47:41.914Z,101988.72
2023-04-09T04:50:09.074Z,101988.69
2023-04-09T04:51:07.311Z,101988.69
2023-04-09T04:52:36.496Z,101992.19
2023-04-09T04:55:02.942Z,101991.31
2023-04-09T04:56:07.356Z,101991.31
2023-04-09T04:57:29.358Z,101995.63
2023-04-09T04:59:55.757Z,101992.19
2023-04-09T05:01:07.344Z,101992.19
2023-04-09T05:02:22.288Z,101996.47
2023-04-09T05:04:48.688Z,101906.56
2023-04-09T05:06:07.310Z,101906.56
2023-04-09T05:07:15.538Z,101954.97
2023-04-09T05:09:42.905Z,101897.09
2023-04-09T05:11:07.310Z,101897.09
2023-04-09T05:12:11.913Z,102002.53
2023-04-09T05:14:38.212Z,101961.88
2023-04-09T05:16:07.307Z,101961.88
2023-04-09T05:17:04.790Z,102006.88
2023-04-09T05:19:33.598Z,102000.81
2023-04-09T05:21:07.295Z,102000.81
2023-04-09T05:22:00.065Z,101993.91
2023-04-09T05:24:26.434Z,102000.81
2023-04-09T05:26:07.289Z,102000.81
2023-04-09T05:26:52.823Z,102009.47
2023-04-09T05:29:19.145Z,102007.75
2023-04-09T05:31:07.369Z,102007.75
2023-04-09T05:31:45.582Z,102001.69
2023-04-09T05:34:12.050Z,102006.88
2023-04-09T05:36:07.363Z,102006.88
2023-04-09T05:36:38.383Z,102008.63
2023-04-09T05:39:04.785Z,101998.22
2023-04-09T05:41:07.290Z,101998.22
2023-04-09T05:41:32.592Z,102001.69
2023-04-09T05:44:00.844Z,101880.69
2023-04-09T05:46:07.350Z,101880.69
2023-04-09T05:46:30.016Z,102004.25
2023-04-09T05:48:56.668Z,102008.53
2023-04-09T05:51:07.301Z,102008.53
2023-04-09T05:51:23.070Z,102005.03
2023-04-09T05:53:49.902Z,102007.59
2023-04-09T05:56:07.321Z,102007.59
2023-04-09T05:56:16.525Z,102002.41
2023-04-09T05:58:42.917Z,101978.19
2023-04-09T06:01:07.302Z,101978.19
2023-04-09T06:01:10.218Z,101967.78
2023-04-09T06:03:36.898Z,102007.50
2023-04-09T06:06:03.436Z,101973.78
2023-04-09T06:06:07.383Z,101973.78
2023-04-09T06:08:29.846Z,102004.81
2023-04-09T06:10:56.261Z,102006.50
2023-04-09T06:11:07.347Z,102006.50
2023-04-09T06:13:22.739Z,102007.28
2023-04-09T06:15:49.137Z,102008.94
2023-04-09T06:16:07.409Z,102008.94
2023-04-09T06:18:15.653Z,102007.13
2023-04-09T06:20:41.981Z,102005.31
2023-04-09T06:21:07.343Z,102005.31
2023-04-09T06:23:08.329Z,101938.78
2023-04-09T06:25:36.426Z,101899.84
2023-04-09T06:26:07.354Z,101899.84
2023-04-09T06:28:03.140Z,101959.28
2023-04-09T06:30:30.925Z,102014.34
2023-04-09T06:31:08.532Z,102014.34
2023-04-09T06:32:57.266Z,102018.53
2023-04-09T06:35:23.733Z,101952.78
2023-04-09T06:36:07.415Z,101952.78
2023-04-09T06:37:50.315Z,101956.00
2023-04-09T06:40:16.721Z,102002.47
2023-04-09T06:41:07.354Z,102002.47
2023-04-09T06:42:43.153Z,102016.22
2023-04-09T06:45:12.126Z,102014.22
2023-04-09T06:46:07.397Z,102014.22
2023-04-09T06:47:38.530Z,101989.00
2023-04-09T06:50:05.644Z,101967.31
2023-04-09T06:51:07.363Z,101967.31
2023-04-09T06:52:32.055Z,102005.81
2023-04-09T06:54:58.436Z,102006.44
2023-04-09T06:56:07.339Z,102006.44
2023-04-09T06:57:26.239Z,101803.72
2023-04-09T06:59:52.711Z,102000.66
2023-04-09T07:01:07.349Z,102000.66
2023-04-09T07:02:19.223Z,101924.63
2023-04-09T07:04:45.926Z,101990.44
2023-04-09T07:06:07.351Z,101990.44
2023-04-09T07:07:12.575Z,101977.97
2023-04-09T07:09:39.245Z,101952.53
2023-04-09T07:11:07.361Z,101952.53
2023-04-09T07:12:05.702Z,101942.59
2023-04-09T07:14:32.100Z,101947.53
2023-04-09T07:16:07.350Z,101947.53
2023-04-09T07:16:58.541Z,101937.50
2023-04-09T07:19:24.892Z,101863.84
2023-04-09T07:21:07.309Z,101863.84
2023-04-09T07:21:51.377Z,101882.41
2023-04-09T07:24:17.827Z,101877.66
2023-04-09T07:26:07.354Z,101877.66
2023-04-09T07:26:44.227Z,101858.25
2023-04-09T07:29:10.602Z,101813.25
2023-04-09T07:31:07.422Z,101813.25
2023-04-09T07:31:37.111Z,101836.63
2023-04-09T07:34:03.686Z,101810.22
2023-04-09T07:36:07.340Z,101810.22
2023-04-09T07:36:31.806Z,101788.13
2023-04-09T07:38:58.261Z,101759.09
2023-04-09T07:41:07.347Z,101759.09
2023-04-09T07:41:24.726Z,101733.94
2023-04-09T07:43:51.455Z,101755.84
2023-04-09T07:46:07.389Z,101755.84
2023-04-09T07:46:21.707Z,101720.66
2023-04-09T07:48:49.965Z,101697.03
2023-04-09T07:51:07.336Z,101697.03
2023-04-09T07:51:16.602Z,101727.63
2023-04-09T07:53:43.038Z,101729.94
2023-04-09T07:56:07.346Z,101729.94
2023-04-09T07:56:09.388Z,101733.19
2023-04-09T07:58:38.006Z,101710.03
2023-04-09T08:01:04.788Z,101701.69
2023-04-09T08:01:07.360Z,101701.69
2023-04-09T08:03:31.581Z,101655.44
2023-04-09T08:05:58.142Z,101580.75
2023-04-09T08:06:07.366Z,101580.75
2023-04-09T08:08:25.045Z,101638.28
2023-04-09T08:10:51.551Z,101637.94
2023-04-09T08:11:07.366Z,101637.94
2023-04-09T08:13:17.960Z,101628.81
2023-04-09T08:15:44.366Z,101618.28
2023-04-09T08:16:07.351Z,101618.28
2023-04-09T08:18:10.823Z,101620.31
2023-04-09T08:20:37.838Z,101597.00
2023-04-09T08:21:07.348Z,101597.00
2023-04-09T08:23:04.260Z,101583.63
2023-04-09T08:25:30.906Z,101587.78
2023-04-09T08:26:07.339Z,101587.78
2023-04-09T08:27:58.122Z,101571.41
2023-04-09T08:30:24.581Z,101528.25
2023-04-09T08:31:07.422Z,101528.25
2023-04-09T08:32:50.996Z,101532.75
2023-04-09T08:35:17.478Z,101530.50
2023-04-09T08:36:07.397Z,101530.50
2023-04-09T08:37:43.936Z,101502.00
2023-04-09T08:40:11.654Z,101471.47
2023-04-09T08:41:07.361Z,101471.47
2023-04-09T08:42:45.846Z,101479.13
2023-04-09T08:45:12.932Z,101449.22
2023-04-09T08:46:07.390Z,101449.22
2023-04-09T08:47:42.578Z,101426.25
2023-04-09T08:50:09.264Z,101436.31
2023-04-09T08:51:07.362Z,101436.31
2023-04-09T08:52:36.969Z,101373.41
2023-04-09T08:55:03.621Z,101431.50
2023-04-09T08:56:07.390Z,101431.50
2023-04-09T08:57:30.403Z,101383.00
2023-04-09T08:59:57.087Z,101370.06
2023-04-09T09:01:07.434Z,101370.06
2023-04-09T09:02:24.250Z,101289.53
2023-04-09T09:04:50.906Z,101255.34
2023-04-09T09:06:07.340Z,101255.34
2023-04-09T09:07:18.194Z,101289.16
2023-04-09T09:09:56.143Z,101283.16
2023-04-09T09:11:07.340Z,101283.16
2023-04-09T09:12:32.822Z,101202.25
2023-04-09T09:14:59.626Z,101267.75
2023-04-09T09:16:07.334Z,101267.75
2023-04-09T09:17:26.511Z,101195.81
2023-04-09T09:19:52.926Z,101276.97
2023-04-09T09:21:07.569Z,101276.97
2023-04-09T09:22:19.306Z,101176.63
2023-04-09T09:24:51.127Z,101197.75
2023-04-09T09:26:07.385Z,101197.75
2023-04-09T09:27:40.250Z,101066.00
2023-04-09T09:30:08.690Z,101094.97
2023-04-09T09:31:07.474Z,101094.97
2023-04-09T09:32:35.828Z,101077.63
2023-04-09T09:35:05.647Z,101082.47
2023-04-09T09:36:07.392Z,101082.47
2023-04-09T09:37:32.853Z,101101.88
2023-04-09T09:40:00.251Z,101004.22
2023-04-09T09:41:07.423Z,101004.22
2023-04-09T09:42:32.741Z,101009.88
2023-04-09T09:45:02.515Z,101055.19
2023-04-09T09:46:07.398Z,101055.19
2023-04-09T09:47:38.875Z,100986.56
2023-04-09T09:50:05.852Z,101001.69
2023-04-09T09:51:07.346Z,101001.69
2023-04-09T09:52:32.497Z,100912.66
2023-04-09T09:55:05.251Z,100939.53
2023-04-09T09:56:07.342Z,100939.53
2023-04-09T09:57:42.502Z,100909.69
2023-04-09T10:00:12.500Z,100863.81
2023-04-09T10:01:07.391Z,100863.81
2023-04-09T10:02:56.595Z,100882.56
2023-04-09T10:05:26.781Z,100836.69
2023-04-09T10:06:07.348Z,100836.69
2023-04-09T10:07:57.256Z,100912.59
2023-04-09T10:10:25.836Z,100922.88
2023-04-09T10:11:07.395Z,100922.88
2023-04-09T10:12:52.653Z,100911.56
2023-04-09T10:15:19.786Z,100942.72
2023-04-09T10:16:07.480Z,100942.72
2023-04-09T10:17:46.319Z,100950.34
2023-04-09T10:20:19.614Z,100939.78
2023-04-09T10:21:07.365Z,100939.78
2023-04-09T10:22:49.152Z,100995.88
2023-04-09T10:25:16.454Z,101002.22
2023-04-09T10:26:07.349Z,101002.22
2023-04-09T10:27:46.108Z,101009.25
2023-04-09T10:30:34.580Z,101059.91
2023-04-09T10:31:07.651Z,101059.91
2023-04-09T10:33:13.797Z,101000.50
2023-04-09T10:35:40.322Z,100996.72
2023-04-09T10:36:07.419Z,100996.72
2023-04-09T10:38:10.764Z,100957.06
2023-04-09T10:40:42.384Z,100998.13
2023-04-09T10:41:07.358Z,100998.13
2023-04-09T10:43:10.385Z,100908.03
2023-04-09T10:45:41.802Z,100984.69
2023-04-09T10:46:07.411Z,100984.69
2023-04-09T10:48:14.778Z,101025.28
2023-04-09T10:50:44.646Z,100997.44
2023-04-09T10:51:07.359Z,100997.44
2023-04-09T10:53:26.378Z,101024.66
2023-04-09T10:55:54.052Z,101042.31
2023-04-09T10:56:07.402Z,101042.31
2023-04-09T10:58:20.494Z,101106.03
2023-04-09T11:00:48.488Z,101086.63
2023-04-09T11:01:07.370Z,101086.63
2023-04-09T11:03:28.912Z,101073.56
2023-04-09T11:05:57.713Z,101048.03
2023-04-09T11:06:07.393Z,101048.03
2023-04-09T11:08:27.667Z,100986.44
2023-04-09T11:10:58.347Z,101151.25
2023-04-09T11:11:07.385Z,101151.25
2023-04-09T11:13:25.437Z,101142.31
2023-04-09T11:15:51.877Z,101086.78
2023-04-09T11:16:07.649Z,101086.78
2023-04-09T11:18:23.651Z,101067.44
2023-04-09T11:20:50.543Z,101072.44
2023-04-09T11:21:07.405Z,101072.44
2023-04-09T11:23:17.811Z,101130.84
2023-04-09T11:25:49.671Z,101203.16
2023-04-09T11:26:07.382Z,101203.16
2023-04-09T11:28:16.305Z,101195.69
2023-04-09T11:30:43.680Z,101163.19
2023-04-09T11:31:07.601Z,101163.19
2023-04-09T11:33:10.495Z,101112.16
2023-04-09T11:35:37.379Z,101103.31
2023-04-09T11:36:07.505Z,101103.31
2023-04-09T11:38:11.262Z,101118.38
2023-04-09T11:40:47.579Z,101177.41
2023-04-09T11:41:07.376Z,101177.41
2023-04-09T11:43:16.561Z,101275.94
2023-04-09T11:45:44.230Z,101313.75
2023-04-09T11:46:07.361Z,101313.75
2023-04-09T11:48:11.596Z,101293.59
2023-04-09T11:50:38.123Z,101285.53
2023-04-09T11:51:07.360Z,101285.53
2023-04-09T11:53:18.389Z,101056.03
2023-04-09T11:55:47.760Z,101159.91
2023-04-09T11:56:07.430Z,101159.91
2023-04-09T11:58:14.849Z,101157.03
2023-04-09T12:00:41.383Z,101170.34
2023-04-09T12:01:07.368Z,101170.34
2023-04-09T12:03:08.227Z,101021.22
2023-04-09T12:05:39.165Z,101124.56
2023-04-09T12:06:07.398Z,101124.56
2023-04-09T12:08:08.304Z,101292.69
2023-04-09T12:10:38.089Z,101211.84
2023-04-09T12:11:07.388Z,101211.84
2023-04-09T12:13:10.431Z,101268.91
2023-04-09T12:15:38.533Z,101285.00
2023-04-09T12:16:07.531Z,101285.00
2023-04-09T12:18:08.753Z,101221.41
2023-04-09T12:20:39.409Z,101203.50
2023-04-09T12:21:07.382Z,101203.50
2023-04-09T12:23:07.348Z,101306.91
2023-04-09T12:25:36.508Z,101199.81
2023-04-09T12:26:07.462Z,101199.81
2023-04-09T12:28:07.272Z,101279.53
2023-04-09T12:30:34.798Z,101264.47
2023-04-09T12:31:07.362Z,101264.47
2023-04-09T12:33:01.439Z,101242.44
2023-04-09T12:35:28.310Z,101299.75
2023-04-09T12:36:07.454Z,101299.75
2023-04-09T12:37:55.151Z,101228.72
2023-04-09T12:40:22.327Z,101274.31
2023-04-09T12:41:07.352Z,101274.31
2023-04-09T12:42:48.988Z,101239.31
2023-04-09T12:45:17.424Z,101269.66
2023-04-09T12:46:07.471Z,101269.66
2023-04-09T12:47:44.654Z,101323.94
2023-04-09T12:50:12.836Z,101198.59
2023-04-09T12:51:07.384Z,101198.59
2023-04-09T12:52:39.342Z,101189.09
2023-04-09T12:55:06.550Z,101369.13
2023-04-09T12:56:07.387Z,101369.13
2023-04-09T12:57:33.115Z,101358.22
2023-04-09T13:00:00.087Z,101311.81
2023-04-09T13:01:07.507Z,101311.81
2023-04-09T13:02:26.857Z,101193.22
2023-04-09T13:04:53.452Z,101272.59
2023-04-09T13:06:07.448Z,101272.59
2023-04-09T13:07:20.357Z,101310.47
2023-04-09T13:09:48.921Z,101232.41
2023-04-09T13:11:07.401Z,101232.41
2023-04-09T13:12:16.241Z,101368.47
2023-04-09T13:14:46.730Z,101370.25
2023-04-09T13:16:07.511Z,101370.25
2023-04-09T13:17:13.298Z,101335.34
2023-04-09T13:19:42.011Z,101342.88
2023-04-09T13:21:07.431Z,101342.88
2023-04-09T13:22:09.177Z,101402.13
2023-04-09T13:24:36.195Z,101353.13
2023-04-09T13:26:07.447Z,101353.13
2023-04-09T13:27:04.580Z,101301.38
2023-04-09T13:29:31.354Z,101253.97
2023-04-09T13:31:07.450Z,101253.97
2023-04-09T13:31:58.410Z,101232.34
2023-04-09T13:34:25.276Z,101187.31
2023-04-09T13:36:07.493Z,101187.31
2023-04-09T13:36:51.786Z,101259.47
2023-04-09T13:39:18.151Z,101104.72
2023-04-09T13:41:07.438Z,101104.72
2023-04-09T13:41:44.591Z,101239.00
2023-04-09T13:44:11.358Z,101206.47
2023-04-09T13:46:07.507Z,101206.47
2023-04-09T13:46:37.839Z,101243.78
2023-04-09T13:49:04.243Z,101345.91
2023-04-09T13:51:07.416Z,101345.91
2023-04-09T13:51:33.182Z,101356.56
2023-04-09T13:53:59.633Z,101402.19
2023-04-09T13:56:07.416Z,101402.19
2023-04-09T13:56:27.461Z,101321.50
2023-04-09T13:58:54.489Z,101358.78
2023-04-09T14:01:08.137Z,101358.78
2023-04-09T14:01:21.469Z,101361.22
2023-04-09T14:03:48.007Z,101347.78
2023-04-09T14:06:07.420Z,101347.78
2023-04-09T14:06:14.486Z,101321.78
2023-04-09T14:08:40.949Z,101301.53
2023-04-09T14:11:07.517Z,101207.63
2023-04-09T14:11:07.705Z,101207.63
2023-04-09T14:13:33.959Z,101374.97
2023-04-09T14:16:00.641Z,101377.16
2023-04-09T14:16:07.663Z,101377.16
2023-04-09T14:18:27.145Z,101289.97
2023-04-09T14:20:53.626Z,101150.59
2023-04-09T14:21:08.699Z,101150.59
2023-04-09T14:23:20.159Z,101310.75
2023-04-09T14:25:46.560Z,101353.03
2023-04-09T14:26:07.408Z,101353.03
2023-04-09T14:28:12.927Z,101301.88
2023-04-09T14:30:39.394Z,101255.00
2023-04-09T14:31:07.474Z,101255.00
2023-04-09T14:33:05.897Z,101334.16
2023-04-09T14:35:32.334Z,101383.31
2023-04-09T14:36:07.478Z,101383.31
2023-04-09T14:37:58.710Z,101321.34
2023-04-09T14:40:25.246Z,101352.50
2023-04-09T14:41:07.412Z,101352.50
2023-04-09T14:42:51.599Z,101318.16
2023-04-09T14:45:18.017Z,101283.19
2023-04-09T14:46:07.452Z,101283.19
2023-04-09T14:47:44.556Z,101279.00
2023-04-09T14:50:12.605Z,101317.59
2023-04-09T14:51:07.414Z,101317.59
2023-04-09T14:52:39.082Z,101294.88
2023-04-09T14:55:08.972Z,101245.47
2023-04-09T14:56:07.420Z,101245.47
2023-04-09T14:57:35.349Z,101334.78
2023-04-09T15:00:01.962Z,101350.22
2023-04-09T15:01:07.383Z,101350.22
2023-04-09T15:02:28.639Z,101305.75
2023-04-09T15:04:55.285Z,101288.09
2023-04-09T15:06:07.424Z,101288.09
2023-04-09T15:07:23.820Z,101285.13
2023-04-09T15:09:51.380Z,101207.28
2023-04-09T15:11:07.444Z,101207.28
2023-04-09T15:12:18.495Z,101295.50
2023-04-09T15:14:44.917Z,101230.59
2023-04-09T15:16:07.496Z,101230.59
2023-04-09T15:17:11.315Z,101319.75
2023-04-09T15:19:37.698Z,101270.00
2023-04-09T15:21:07.491Z,101270.00
2023-04-09T15:22:04.013Z,101261.97
2023-04-09T15:24:30.404Z,101310.97
2023-04-09T15:26:07.435Z,101310.97
2023-04-09T15:26:56.915Z,101372.16
2023-04-09T15:29:23.249Z,101439.94
2023-04-09T15:31:07.515Z,101439.94
2023-04-09T15:31:52.963Z,101400.41
2023-04-09T15:34:19.415Z,101367.53
2023-04-09T15:36:07.478Z,101367.53
2023-04-09T15:36:46.136Z,101336.69
2023-04-09T15:39:12.537Z,101333.16
2023-04-09T15:41:07.448Z,101333.16
2023-04-09T15:41:39.468Z,101290.38
2023-04-09T15:44:07.814Z,101320.00
2023-04-09T15:46:07.519Z,101320.00
2023-04-09T15:46:34.379Z,101301.28
2023-04-09T15:49:00.919Z,101218.63
2023-04-09T15:51:07.442Z,101218.63
2023-04-09T15:51:27.319Z,101308.94
2023-04-09T15:53:53.729Z,101276.41
2023-04-09T15:56:07.441Z,101276.41
2023-04-09T15:56:20.230Z,101246.09
2023-04-09T15:58:46.591Z,101348.84
2023-04-09T16:01:07.460Z,101348.84
2023-04-09T16:01:13.087Z,101344.84
2023-04-09T16:03:40.947Z,101291.75
2023-04-09T16:06:09.978Z,101308.41
2023-04-09T16:06:10.188Z,101308.41
2023-04-09T16:08:37.222Z,101334.56
2023-04-09T16:11:04.900Z,101264.34
2023-04-09T16:11:07.438Z,101264.34
2023-04-09T16:13:31.403Z,101246.78
2023-04-09T16:15:57.868Z,101293.78
2023-04-09T16:16:07.513Z,101293.78
2023-04-09T16:18:25.728Z,101261.13
2023-04-09T16:20:56.459Z,101320.31
2023-04-09T16:21:07.553Z,101320.31
2023-04-09T16:23:29.065Z,101315.38
2023-04-09T16:25:56.795Z,101272.44
2023-04-09T16:26:07.444Z,101272.44
2023-04-09T16:28:23.167Z,101284.72
2023-04-09T16:30:50.856Z,101304.53
2023-04-09T16:31:07.455Z,101304.53
2023-04-09T16:33:17.341Z,101299.81
2023-04-09T16:35:43.757Z,101243.66
2023-04-09T16:36:07.420Z,101243.66
2023-04-09T16:38:10.423Z,101318.94
2023-04-09T16:40:36.946Z,101287.53
2023-04-09T16:41:07.449Z,101287.53
2023-04-09T16:43:03.638Z,101272.44
2023-04-09T16:45:30.293Z,101288.56
2023-04-09T16:46:07.663Z,101288.56
2023-04-09T16:47:56.715Z,101289.75
2023-04-09T16:50:23.398Z,101277.63
2023-04-09T16:51:07.451Z,101277.63
2023-04-09T16:52:49.812Z,101257.66
2023-04-09T16:55:16.467Z,101275.06
2023-04-09T16:56:07.447Z,101275.06
2023-04-09T16:57:43.000Z,101184.28
2023-04-09T17:00:10.474Z,101241.06
2023-04-09T17:01:07.434Z,101241.06
2023-04-09T17:02:37.064Z,101238.28
2023-04-09T17:05:04.341Z,101220.72
2023-04-09T17:06:07.448Z,101220.72
2023-04-09T17:07:30.820Z,101295.22
2023-04-09T17:09:57.224Z,101282.63
2023-04-09T17:11:07.507Z,101282.63
2023-04-09T17:12:24.431Z,101284.16
2023-04-09T17:14:51.553Z,101300.00
2023-04-09T17:16:07.435Z,101300.00
2023-04-09T17:17:18.562Z,101290.97
2023-04-09T17:19:45.113Z,101130.22
2023-04-09T17:21:07.554Z,101130.22
2023-04-09T17:22:13.394Z,101307.84
2023-04-09T17:24:39.978Z,101221.34
2023-04-09T17:26:07.451Z,101221.34
2023-04-09T17:27:07.109Z,101325.44
2023-04-09T17:29:34.290Z,101371.88
2023-04-09T17:32:00.685Z,101310.66
2023-04-09T17:34:27.210Z,101346.63
2023-04-09T17:36:07.541Z,101346.63
2023-04-09T17:36:57.202Z,101268.44
2023-04-09T17:39:26.581Z,101296.03
2023-04-09T17:41:07.766Z,101296.03
2023-04-09T17:41:53.633Z,101340.47
2023-04-09T17:44:20.574Z,101347.38
2023-04-09T17:46:07.547Z,101347.38
2023-04-09T17:46:47.094Z,101353.50
2023-04-09T17:49:13.570Z,101316.41
2023-04-09T17:51:07.464Z,101316.41
2023-04-09T17:51:39.921Z,101347.22
2023-04-09T17:54:06.648Z,101357.69
2023-04-09T17:56:07.476Z,101357.69
2023-04-09T17:56:35.374Z,101365.03
2023-04-09T17:59:02.166Z,101364.72
2023-04-09T18:01:07.625Z,101364.72
2023-04-09T18:01:28.793Z,101370.59
2023-04-09T18:03:55.453Z,101348.63
2023-04-09T18:06:07.479Z,101348.63
2023-04-09T18:06:21.964Z,101281.75
2023-04-09T18:08:50.114Z,101363.09
2023-04-09T18:11:18.351Z,101341.47
2023-04-09T18:13:44.868Z,101412.31
2023-04-09T18:16:07.550Z,101412.31
2023-04-09T18:16:14.676Z,101361.31
2023-04-09T18:18:41.351Z,101356.78
2023-04-09T18:21:07.884Z,101359.53
2023-04-09T18:21:08.542Z,101359.53
2023-04-09T18:23:34.749Z,101423.28
2023-04-09T18:26:01.160Z,101370.31
2023-04-09T18:26:07.479Z,101370.31
2023-04-09T18:28:28.107Z,101440.97
2023-04-09T18:30:54.775Z,101455.16
2023-04-09T18:31:07.466Z,101455.16
2023-04-09T18:33:21.431Z,101439.53
2023-04-09T18:35:48.949Z,101454.50
2023-04-09T18:36:07.475Z,101454.50
2023-04-09T18:38:15.418Z,101467.59
2023-04-09T18:40:45.709Z,101480.00
2023-04-09T18:41:07.475Z,101480.00
2023-04-09T18:43:12.489Z,101469.75
2023-04-09T18:45:41.812Z,101413.78
2023-04-09T18:46:07.501Z,101413.78
2023-04-09T18:48:08.955Z,101440.47
2023-04-09T18:50:35.666Z,101294.75
2023-04-09T18:51:07.511Z,101294.75
2023-04-09T18:53:03.666Z,101490.84